Time;durP1;ratioP1;P1;durP2;ratioP2;P2;SDS_P1;SDS_P2;PMS_P1;PMS_P2;Temp;Humidity;BMP_temperature;BMP_pressure;BME280_temperature;BME280_humidity;BME280_pressure;Samples;Min_cycle;Max_cycle;Signal;HPM_P1;HPM_P2
2021/12/09 00:01:10;;;;;;;;;0.00;0.00;;;;;6.05;74.86;100211.06;5117137;27;46206;-71
2021/12/09 00:03:40;;;;;;;;;1.00;0.00;;;;;6.05;74.60;100217.16;5116967;27;45212;-71
2021/12/09 00:06:07;;;;;;;;;1.00;0.00;;;;;6.06;75.04;100218.94;5117182;27;45470;-72
2021/12/09 00:08:34;;;;;;;;;0.00;0.00;;;;;6.07;74.84;100225.91;5117390;27;45545;-70
2021/12/09 00:11:02;;;;;;;;;2.25;0.00;;;;;6.14;74.56;100219.25;5116968;27;45616;-70
2021/12/09 00:13:28;;;;;;;;;1.00;0.00;;;;;6.21;74.24;100225.59;5117317;27;45418;-72
2021/12/09 00:15:55;;;;;;;;;0.00;0.00;;;;;6.21;74.28;100225.59;5117487;27;45672;-71
2021/12/09 00:18:21;;;;;;;;;0.00;0.00;;;;;6.23;74.10;100223.94;5117057;27;45400;-71
2021/12/09 00:20:47;;;;;;;;;0.50;0.00;;;;;6.25;73.47;100220.59;5116679;27;46105;-71
2021/12/09 00:23:13;;;;;;;;;0.00;0.00;;;;;6.21;73.66;100204.84;5116707;27;45346;-71
2021/12/09 00:25:39;;;;;;;;;0.00;0.00;;;;;6.37;73.58;100221.13;5116947;27;45555;-70
2021/12/09 00:28:05;;;;;;;;;23.25;20.50;;;;;6.35;72.57;100212.38;5117185;27;45526;-72
2021/12/09 00:30:32;;;;;;;;;1.25;0.00;;;;;6.48;72.43;100218.94;5116726;27;45992;-72
2021/12/09 00:33:00;;;;;;;;;1.00;0.00;;;;;6.59;72.12;100216.81;5114301;27;45527;-71
2021/12/09 00:35:34;;;;;;;;;4.75;2.00;;;;;6.66;72.60;100216.22;5116743;27;45418;-72
2021/12/09 00:38:07;;;;;;;;;3.00;2.50;;;;;6.74;72.24;100203.53;5111454;27;45398;-71
2021/12/09 00:40:33;;;;;;;;;2.25;2.00;;;;;6.75;71.89;100207.94;5116339;27;46378;-71
2021/12/09 00:42:59;;;;;;;;;0.50;0.25;;;;;6.80;71.40;100214.16;5116777;27;45567;-69
2021/12/09 00:45:25;;;;;;;;;8.50;6.50;;;;;6.85;71.47;100202.28;5116935;27;45546;-71
2021/12/09 00:47:51;;;;;;;;;3.00;0.00;;;;;6.90;70.43;100212.81;5115606;27;45557;-71
2021/12/09 00:50:18;;;;;;;;;0.00;0.00;;;;;6.92;71.28;100203.38;5116174;27;45438;-72
2021/12/09 00:52:43;;;;;;;;;0.00;0.00;;;;;6.82;70.77;100198.66;5116264;27;45507;-71
2021/12/09 00:55:09;;;;;;;;;0.00;0.00;;;;;6.89;70.81;100219.75;5116456;27;45820;-72
2021/12/09 00:57:36;;;;;;;;;1.00;0.00;;;;;6.76;70.22;100195.03;5116717;27;45492;-71
2021/12/09 01:00:10;;;;;;;;;0.00;0.00;;;;;6.95;70.83;100222.56;5116280;27;46273;-72
2021/12/09 01:02:36;;;;;;;;;0.00;0.00;;;;;6.98;70.41;100229.59;5114615;27;45364;-71
2021/12/09 01:05:03;;;;;;;;;0.00;0.00;;;;;6.98;70.47;100232.19;5116374;27;45430;-71
2021/12/09 01:07:28;;;;;;;;;0.50;0.00;;;;;6.97;71.07;100233.91;5116885;27;45466;-72
2021/12/09 01:09:54;;;;;;;;;0.00;0.00;;;;;6.97;70.76;100225.25;5116113;27;45557;-71
2021/12/09 01:12:20;;;;;;;;;0.00;0.00;;;;;6.97;70.23;100228.72;5116137;27;45653;-71
2021/12/09 01:14:45;;;;;;;;;0.00;0.00;;;;;6.95;70.41;100225.16;5116387;27;45425;-71
2021/12/09 01:17:11;;;;;;;;;0.00;0.00;;;;;6.97;69.69;100225.25;5116619;27;45396;-71
2021/12/09 01:19:38;;;;;;;;;0.50;0.00;;;;;7.01;69.84;100228.84;5116134;27;45537;-71
2021/12/09 01:22:05;;;;;;;;;0.50;0.00;;;;;7.01;69.49;100223.66;5117662;27;45522;-71
2021/12/09 01:24:31;;;;;;;;;0.00;0.00;;;;;7.03;69.39;100222.00;5117777;27;45413;-70
2021/12/09 01:26:58;;;;;;;;;0.00;0.00;;;;;7.09;69.72;100225.72;5118155;27;45420;-71
2021/12/09 01:29:32;;;;;;;;;0.00;0.00;;;;;7.12;69.20;100227.53;5117515;27;46221;-71
2021/12/09 01:32:02;;;;;;;;;0.00;0.00;;;;;7.12;68.86;100224.94;5116434;27;45369;-71
2021/12/09 01:34:27;;;;;;;;;1.00;0.00;;;;;7.01;69.14;100202.88;5117981;27;45454;-71
2021/12/09 01:36:53;;;;;;;;;6.75;6.50;;;;;7.05;68.88;100197.84;5117739;27;45387;-71
2021/12/09 01:39:21;;;;;;;;;2.00;2.00;;;;;7.17;68.90;100194.84;5117471;27;45594;-71
2021/12/09 01:41:47;;;;;;;;;1.00;1.00;;;;;7.21;68.72;100198.44;5117463;27;45431;-71
2021/12/09 01:44:13;;;;;;;;;6.00;3.50;;;;;7.19;69.10;100176.72;5117419;27;45467;-71
2021/12/09 01:46:39;;;;;;;;;1.75;1.00;;;;;7.19;69.00;100180.19;5118848;27;45500;-71
2021/12/09 01:49:05;;;;;;;;;6.00;4.00;;;;;7.17;68.95;100189.63;5120966;27;45456;-71
2021/12/09 01:51:31;;;;;;;;;0.00;0.00;;;;;7.17;69.06;100190.53;5121436;27;45422;-72
2021/12/09 01:53:56;;;;;;;;;1.00;0.00;;;;;7.17;68.77;100179.25;5121619;27;45911;-72
2021/12/09 01:56:24;;;;;;;;;0.00;0.00;;;;;7.19;68.69;100184.50;5121292;27;45209;-71
2021/12/09 01:58:56;;;;;;;;;0.00;0.00;;;;;7.20;69.06;100197.53;5120843;27;45546;-71
2021/12/09 02:01:23;;;;;;;;;0.00;0.00;;;;;7.01;69.39;100174.31;5120619;27;45347;-72
2021/12/09 02:03:49;;;;;;;;;1.75;1.00;;;;;7.20;69.35;100202.72;5120620;27;45398;-71
2021/12/09 02:06:15;;;;;;;;;0.00;0.00;;;;;7.16;69.54;100217.34;5121751;27;45365;-71
2021/12/09 02:08:43;;;;;;;;;0.00;0.00;;;;;7.14;70.32;100234.56;5121722;27;45351;-72
2021/12/09 02:11:09;;;;;;;;;0.00;0.00;;;;;6.95;70.48;100217.38;5120754;27;45260;-71
2021/12/09 02:13:35;;;;;;;;;0.00;0.00;;;;;7.09;70.74;100237.81;5120738;27;45227;-71
2021/12/09 02:16:01;;;;;;;;;0.00;0.00;;;;;7.08;71.40;100243.81;5121223;27;45388;-72
2021/12/09 02:18:27;;;;;;;;;0.00;0.00;;;;;6.91;71.67;100218.09;5120569;27;46124;-72
2021/12/09 02:21:18;;;;;;;;;0.00;0.00;;;;;7.08;71.88;100236.03;5120589;27;45751;-71
2021/12/09 02:23:46;;;;;;;;;2.50;2.50;;;;;7.09;72.33;100241.28;5120358;27;45571;-71
2021/12/09 02:26:14;;;;;;;;;0.00;0.00;;;;;7.10;72.18;100248.28;5120531;27;45234;-72
2021/12/09 02:28:41;;;;;;;;;0.00;0.00;;;;;7.10;72.32;100235.28;5120246;27;47024;-71
2021/12/09 02:31:07;;;;;;;;;0.00;0.00;;;;;7.09;72.49;100232.63;5119068;27;45485;-71
2021/12/09 02:33:33;;;;;;;;;0.00;0.00;;;;;7.03;72.58;100229.78;5120698;27;45258;-72
2021/12/09 02:35:58;;;;;;;;;0.00;0.00;;;;;7.01;72.80;100221.06;5120655;27;45511;-72
2021/12/09 02:38:24;;;;;;;;;0.50;0.00;;;;;6.99;72.91;100212.31;5120157;27;45387;-71
2021/12/09 02:40:51;;;;;;;;;0.00;0.00;;;;;6.95;73.16;100212.19;5120121;27;45505;-71
2021/12/09 02:43:25;;;;;;;;;0.00;0.00;;;;;6.92;73.35;100218.97;5120145;27;45319;-72
2021/12/09 02:45:52;;;;;;;;;0.00;0.00;;;;;6.94;72.86;100222.50;5120367;27;45442;-72
2021/12/09 02:48:20;;;;;;;;;0.00;0.00;;;;;6.96;72.62;100228.66;5119903;27;45407;-71
2021/12/09 02:50:46;;;;;;;;;1.00;0.00;;;;;6.97;72.83;100230.44;5119810;27;45494;-71
2021/12/09 02:53:12;;;;;;;;;0.00;0.00;;;;;6.92;72.88;100226.75;5119950;27;45261;-72
2021/12/09 02:55:38;;;;;;;;;0.00;0.00;;;;;6.84;73.11;100238.56;5120232;27;45479;-71
2021/12/09 02:58:04;;;;;;;;;0.00;0.00;;;;;6.81;72.33;100234.13;5118826;27;46301;-71
2021/12/09 03:00:31;;;;;;;;;0.00;0.00;;;;;6.76;73.40;100251.22;5120058;27;45483;-71
2021/12/09 03:02:58;;;;;;;;;0.00;0.00;;;;;6.71;73.47;100247.56;5119994;27;45517;-72
2021/12/09 03:05:25;;;;;;;;;0.00;0.00;;;;;6.73;72.74;100238.13;5119996;27;45331;-71
2021/12/09 03:07:51;;;;;;;;;0.00;0.00;;;;;6.68;72.86;100245.72;5119489;27;46165;-71
2021/12/09 03:10:23;;;;;;;;;0.25;0.00;;;;;6.74;73.19;100247.69;5119686;27;45446;-71
2021/12/09 03:12:52;;;;;;;;;0.25;0.00;;;;;6.81;72.47;100254.91;5119826;27;45445;-71
2021/12/09 03:15:18;;;;;;;;;0.00;0.00;;;;;6.82;72.98;100261.84;5119908;27;45358;-72
2021/12/09 03:17:47;;;;;;;;;0.00;0.00;;;;;6.88;72.60;100264.69;5119571;27;45443;-71
2021/12/09 03:20:17;;;;;;;;;0.00;0.00;;;;;6.89;72.29;100266.47;5119606;27;45294;-71
2021/12/09 03:22:44;;;;;;;;;0.00;0.00;;;;;6.90;72.80;100268.25;5119606;27;45498;-71
2021/12/09 03:25:12;;;;;;;;;1.25;1.00;;;;;6.96;72.80;100273.69;5119615;27;45292;-71
2021/12/09 03:27:38;;;;;;;;;0.50;0.00;;;;;6.88;72.89;100256.91;5119087;27;46245;-70
2021/12/09 03:30:07;;;;;;;;;0.00;0.00;;;;;7.04;72.39;100278.28;5119426;27;45311;-71
2021/12/09 03:32:33;;;;;;;;;0.00;0.00;;;;;6.79;72.91;100260.88;5119623;27;45289;-71
2021/12/09 03:34:58;;;;;;;;;0.00;0.00;;;;;6.83;74.09;100284.41;5119427;27;45436;-70
2021/12/09 03:37:27;;;;;;;;;0.00;0.00;;;;;6.79;73.20;100272.13;5119416;27;45306;-71
2021/12/09 03:39:55;;;;;;;;;0.00;0.00;;;;;6.79;73.55;100276.44;5119397;27;45474;-72
2021/12/09 03:42:24;;;;;;;;;0.00;0.00;;;;;6.81;73.92;100285.19;5119710;27;45264;-72
2021/12/09 03:44:52;;;;;;;;;0.00;0.00;;;;;6.78;73.32;100280.72;5119522;27;45297;-71
2021/12/09 03:47:21;;;;;;;;;0.00;0.00;;;;;6.73;74.01;100288.34;5119164;27;45429;-71
2021/12/09 03:49:48;;;;;;;;;0.00;0.00;;;;;6.74;73.92;100290.13;5119223;27;45518;-71
2021/12/09 03:52:14;;;;;;;;;0.00;0.00;;;;;6.83;73.63;100288.72;5117915;27;45671;-71
2021/12/09 03:54:41;;;;;;;;;0.00;0.00;;;;;6.86;73.61;100279.31;5119451;27;45417;-71
2021/12/09 03:57:08;;;;;;;;;0.00;0.00;;;;;6.85;73.97;100280.16;5119283;27;46146;-70
2021/12/09 03:59:34;;;;;;;;;0.00;0.00;;;;;6.85;74.31;100272.38;5120176;27;45508;-71
2021/12/09 04:02:00;;;;;;;;;0.00;0.00;;;;;6.72;74.34;100250.19;5118893;27;45315;-71
2021/12/09 04:04:26;;;;;;;;;0.00;0.00;;;;;6.74;73.65;100256.38;5119100;27;45251;-71
2021/12/09 04:06:51;;;;;;;;;0.00;0.00;;;;;6.79;73.89;100279.03;5118689;27;45260;-71
2021/12/09 04:09:19;;;;;;;;;6.75;4.00;;;;;6.70;73.94;100287.31;5117982;27;45215;-71
2021/12/09 04:11:45;;;;;;;;;3.00;3.00;;;;;6.68;73.81;100289.84;5118888;27;45378;-71
2021/12/09 04:14:12;;;;;;;;;1.00;0.00;;;;;6.65;73.75;100281.06;5119017;27;45565;-70
2021/12/09 04:16:39;;;;;;;;;1.75;0.00;;;;;6.58;74.44;100285.09;5118840;27;45398;-71
2021/12/09 04:19:07;;;;;;;;;0.00;0.00;;;;;6.54;74.26;100286.66;5118677;27;45379;-71
2021/12/09 04:21:33;;;;;;;;;0.00;0.00;;;;;6.54;73.88;100285.78;5118589;27;45419;-71
2021/12/09 04:23:59;;;;;;;;;3.00;0.00;;;;;6.55;74.24;100287.59;5118407;27;45514;-72
2021/12/09 04:26:24;;;;;;;;;0.00;0.00;;;;;6.53;73.97;100286.63;5118328;27;45593;-72
2021/12/09 04:28:50;;;;;;;;;0.00;0.00;;;;;6.53;74.21;100284.03;5118748;27;45305;-72
2021/12/09 04:31:17;;;;;;;;;1.00;1.00;;;;;6.45;74.40;100286.31;5118536;27;45506;-71
2021/12/09 04:33:43;;;;;;;;;0.00;0.00;;;;;6.46;74.03;100290.66;5118411;27;45508;-71
2021/12/09 04:36:10;;;;;;;;;0.00;0.00;;;;;6.48;74.22;100289.00;5118371;27;46209;-72
2021/12/09 04:38:36;;;;;;;;;3.50;1.50;;;;;6.51;74.71;100290.88;5118443;27;45420;-72
2021/12/09 04:41:02;;;;;;;;;2.00;2.00;;;;;6.53;74.22;100294.41;5118411;27;45478;-71
2021/12/09 04:43:27;;;;;;;;;3.00;2.00;;;;;6.57;73.71;100294.59;5118554;27;45374;-72
2021/12/09 04:45:53;;;;;;;;;2.50;2.00;;;;;6.59;74.69;100293.78;5117928;27;46187;-72
2021/12/09 04:48:19;;;;;;;;;0.25;0.00;;;;;6.61;74.41;100305.13;5118204;27;45272;-71
2021/12/09 04:50:44;;;;;;;;;0.25;0.00;;;;;6.60;74.38;100300.75;5118406;27;45295;-71
2021/12/09 04:53:11;;;;;;;;;0.50;0.00;;;;;6.63;74.65;100306.06;5118766;27;45216;-71
2021/12/09 04:55:37;;;;;;;;;0.00;0.00;;;;;6.66;74.32;100304.47;5118083;27;45463;-72
2021/12/09 04:58:03;;;;;;;;;0.00;0.00;;;;;6.65;74.70;100310.50;5118221;27;45565;-72
2021/12/09 05:00:32;;;;;;;;;1.00;0.00;;;;;6.65;75.09;100309.63;5118144;27;45304;-72
2021/12/09 05:03:03;;;;;;;;;0.00;0.00;;;;;6.41;75.23;100270.56;5118555;27;45429;-71
2021/12/09 05:05:37;;;;;;;;;0.00;0.00;;;;;6.64;74.53;100310.44;5117641;27;46122;-72
2021/12/09 05:08:06;;;;;;;;;0.00;0.00;;;;;6.66;74.60;100313.97;5117960;27;45506;-72
2021/12/09 05:10:36;;;;;;;;;0.00;0.00;;;;;6.68;74.63;100320.13;5118009;27;45361;-73
2021/12/09 05:13:04;;;;;;;;;8.00;8.00;;;;;6.68;75.21;100314.91;5118200;27;45568;-72
2021/12/09 05:15:31;;;;;;;;;17.25;13.50;;;;;6.61;75.47;100318.97;5117662;27;46096;-72
2021/12/09 05:17:56;;;;;;;;;19.25;19.25;;;;;6.42;75.52;100295.66;5117807;27;45436;-72
2021/12/09 05:20:22;;;;;;;;;10.75;9.50;;;;;6.63;75.67;100326.84;5117829;27;45276;-71
2021/12/09 05:22:48;;;;;;;;;3.75;3.75;;;;;6.66;75.35;100330.44;5121017;27;45389;-71
2021/12/09 05:25:14;;;;;;;;;2.75;1.00;;;;;6.64;74.96;100318.22;5121394;27;45502;-70
2021/12/09 05:27:40;;;;;;;;;3.00;3.00;;;;;6.77;74.84;100323.09;5121673;27;45501;-72
2021/12/09 05:30:12;;;;;;;;;2.50;2.00;;;;;6.79;75.27;100329.25;5121481;27;45371;-72
2021/12/09 05:32:37;;;;;;;;;3.00;2.25;;;;;6.81;75.12;100329.31;5121310;27;45477;-73
2021/12/09 05:35:03;;;;;;;;;13.00;8.75;;;;;6.83;74.77;100332.88;5120923;27;45424;-71
2021/12/09 05:37:29;;;;;;;;;8.75;6.75;;;;;6.84;74.95;100334.63;5121167;27;45375;-72
2021/12/09 05:39:56;;;;;;;;;6.75;6.00;;;;;6.82;75.24;100324.16;5121250;27;45319;-71
2021/12/09 05:42:23;;;;;;;;;1.75;1.00;;;;;6.85;75.52;100323.44;5121433;27;45505;-71
2021/12/09 05:44:50;;;;;;;;;0.00;0.00;;;;;6.75;74.70;100297.06;5120861;27;46121;-71
2021/12/09 05:47:16;;;;;;;;;0.00;0.00;;;;;6.86;74.53;100314.78;5121185;27;45265;-71
2021/12/09 05:49:45;;;;;;;;;0.00;0.00;;;;;6.91;74.33;100321.97;5121479;27;45273;-72
2021/12/09 05:52:12;;;;;;;;;1.00;0.25;;;;;6.94;74.72;100313.41;5121887;27;45252;-72
2021/12/09 05:54:38;;;;;;;;;25.75;21.50;;;;;6.95;74.72;100318.66;5120673;27;46034;-72
2021/12/09 05:57:04;;;;;;;;;11.25;9.00;;;;;6.86;75.06;100294.03;5120800;27;45598;-72
2021/12/09 05:59:29;;;;;;;;;15.75;12.00;;;;;6.97;74.98;100314.41;5120931;27;45316;-72
2021/12/09 06:01:55;;;;;;;;;8.25;6.50;;;;;6.91;75.01;100297.72;5121116;27;45375;-71
2021/12/09 06:04:21;;;;;;;;;2.75;1.25;;;;;7.02;75.02;100324.97;5120691;27;45907;-71
2021/12/09 06:06:47;;;;;;;;;0.50;0.00;;;;;7.03;74.80;100312.91;5120201;27;45470;-70
2021/12/09 06:09:13;;;;;;;;;0.00;0.00;;;;;7.06;75.02;100313.00;5119233;27;45581;-71
2021/12/09 06:11:40;;;;;;;;;0.00;0.00;;;;;7.07;75.13;100309.59;5119085;27;45567;-72
2021/12/09 06:14:07;;;;;;;;;0.00;0.00;;;;;7.07;75.22;100312.19;5119032;27;45524;-71
2021/12/09 06:16:34;;;;;;;;;0.00;0.00;;;;;7.06;75.01;100311.31;5118742;27;45444;-71
2021/12/09 06:19:01;;;;;;;;;25.75;20.50;;;;;7.06;75.21;100307.81;5118234;27;45527;-71
2021/12/09 06:21:27;;;;;;;;;6.00;6.00;;;;;7.04;75.51;100310.34;5108938;27;45645;-71
2021/12/09 06:23:54;;;;;;;;;5.00;2.75;;;;;6.97;75.62;100308.34;5118344;27;45503;-71
2021/12/09 06:26:20;;;;;;;;;0.00;0.00;;;;;6.95;75.59;100303.06;5118335;27;45430;-72
2021/12/09 06:28:46;;;;;;;;;1.75;1.75;;;;;6.96;75.88;100307.47;5118444;27;45350;-70
2021/12/09 06:31:12;;;;;;;;;0.00;0.00;;;;;7.02;75.00;100326.69;5118795;27;45522;-72
2021/12/09 06:33:38;;;;;;;;;0.00;0.00;;;;;6.96;74.77;100312.66;5117632;27;45773;-71
2021/12/09 06:36:04;;;;;;;;;1.00;0.00;;;;;7.08;74.81;100326.94;5118239;27;45537;-71
2021/12/09 06:38:30;;;;;;;;;1.00;1.00;;;;;7.00;74.19;100305.84;5118272;27;45510;-71
2021/12/09 06:40:56;;;;;;;;;3.75;2.00;;;;;7.14;74.39;100325.50;5118778;27;45705;-71
2021/12/09 06:43:22;;;;;;;;;2.50;1.25;;;;;7.18;73.93;100316.09;5111118;27;46845;-72
2021/12/09 06:45:48;;;;;;;;;4.00;4.00;;;;;7.10;74.08;100297.63;5118120;27;45543;-69
2021/12/09 06:48:14;;;;;;;;;3.50;3.00;;;;;7.26;73.81;100317.31;5118427;27;45479;-71
2021/12/09 06:50:40;;;;;;;;;2.75;1.75;;;;;7.15;74.24;100290.88;5118205;27;45558;-71
2021/12/09 06:53:07;;;;;;;;;9.00;6.75;;;;;7.17;73.65;100288.34;5118041;27;45508;-71
2021/12/09 06:55:32;;;;;;;;;1.00;1.00;;;;;7.26;74.23;100317.31;5117841;27;45481;-71
2021/12/09 06:57:58;;;;;;;;;1.00;0.00;;;;;7.31;73.52;100309.69;5117635;27;45496;-71
2021/12/09 07:00:27;;;;;;;;;6.00;3.00;;;;;7.34;73.24;100304.59;5117959;27;45443;-71
2021/12/09 07:02:53;;;;;;;;;7.50;7.25;;;;;7.39;73.44;100310.00;5117593;27;45387;-72
2021/12/09 07:05:21;;;;;;;;;2.50;2.00;;;;;7.39;73.12;100312.59;5117305;27;45695;-70
2021/12/09 07:07:48;;;;;;;;;4.00;2.25;;;;;7.39;73.60;100310.88;5117935;27;45358;-71
2021/12/09 07:10:14;;;;;;;;;1.75;1.25;;;;;7.45;73.78;100305.91;5118282;27;45357;-71
2021/12/09 07:12:40;;;;;;;;;8.00;6.75;;;;;7.47;73.86;100313.75;5117444;27;45422;-72
2021/12/09 07:15:09;;;;;;;;;1.00;0.75;;;;;7.48;74.25;100321.63;5117671;27;45302;-71
2021/12/09 07:17:34;;;;;;;;;27.75;23.50;;;;;7.47;74.28;100304.25;5117768;27;45415;-70
2021/12/09 07:20:01;;;;;;;;;5.25;5.25;;;;;7.54;74.13;100311.47;5117794;27;45581;-71
2021/12/09 07:22:27;;;;;;;;;20.25;18.00;;;;;7.58;74.48;100322.88;5117375;27;46176;-70
2021/12/09 07:24:52;;;;;;;;;12.00;8.75;;;;;7.45;74.42;100292.03;5117417;27;45424;-72
2021/12/09 07:27:18;;;;;;;;;8.75;6.50;;;;;7.59;74.67;100313.34;5117552;27;45587;-70
2021/12/09 07:29:44;;;;;;;;;3.75;3.75;;;;;7.60;74.57;100312.50;5117922;27;45645;-70
2021/12/09 07:32:10;;;;;;;;;2.00;2.00;;;;;7.60;74.71;100316.03;5117413;27;45417;-70
2021/12/09 07:34:35;;;;;;;;;1.00;1.00;;;;;7.62;74.41;100316.06;5117336;27;45529;-70
2021/12/09 07:37:04;;;;;;;;;8.50;8.25;;;;;7.54;74.72;100297.56;5117308;27;45491;-70
2021/12/09 07:39:32;;;;;;;;;16.50;14.75;;;;;7.55;75.20;100302.81;5117781;27;45533;-71
2021/12/09 07:41:59;;;;;;;;;6.00;6.00;;;;;7.60;75.30;100321.22;5117077;27;45445;-71
2021/12/09 07:44:26;;;;;;;;;7.00;5.75;;;;;7.60;74.88;100315.09;5116128;27;45544;-71
2021/12/09 07:46:53;;;;;;;;;4.50;3.75;;;;;7.60;74.82;100302.13;5117351;27;45366;-69
2021/12/09 07:49:20;;;;;;;;;8.75;6.25;;;;;7.47;75.31;100290.38;5118334;27;45427;-70
2021/12/09 07:51:46;;;;;;;;;13.00;10.25;;;;;7.55;75.36;100308.03;5118468;27;45402;-69
2021/12/09 07:54:12;;;;;;;;;15.00;13.25;;;;;7.55;75.01;100313.22;5118745;27;45470;-70
2021/12/09 07:56:37;;;;;;;;;3.50;3.25;;;;;7.56;75.18;100314.13;5118984;27;45343;-71
2021/12/09 07:59:03;;;;;;;;;22.50;19.25;;;;;7.59;75.03;100311.63;5119132;27;45350;-71
2021/12/09 08:01:29;;;;;;;;;6.75;4.25;;;;;7.59;74.90;100303.84;5118726;27;46021;-71
2021/12/09 08:03:55;;;;;;;;;8.75;7.75;;;;;7.45;74.96;100284.22;5118694;27;45703;-71
2021/12/09 08:06:21;;;;;;;;;1.00;1.00;;;;;7.60;74.69;100313.41;5119018;27;45408;-71
2021/12/09 08:08:47;;;;;;;;;6.00;5.50;;;;;7.63;74.86;100325.63;5119128;27;45383;-70
2021/12/09 08:11:12;;;;;;;;;10.00;7.75;;;;;7.46;74.58;100283.38;5119992;27;45486;-72
2021/12/09 08:13:38;;;;;;;;;6.75;6.00;;;;;7.65;74.34;100298.88;5121681;27;45533;-72
2021/12/09 08:16:04;;;;;;;;;5.00;5.00;;;;;7.67;74.37;100298.94;5119008;27;45395;-71
2021/12/09 08:18:43;;;;;;;;;11.25;7.75;;;;;7.69;74.67;100295.53;5119290;27;45290;-71
2021/12/09 08:21:09;;;;;;;;;7.25;6.25;;;;;7.60;74.68;100266.63;5118567;27;46148;-71
2021/12/09 08:23:35;;;;;;;;;6.50;6.50;;;;;7.72;74.66;100293.06;5116977;27;45538;-71
2021/12/09 08:26:00;;;;;;;;;5.00;4.00;;;;;7.74;74.61;100291.41;5118548;27;45344;-71
2021/12/09 08:28:26;;;;;;;;;4.00;4.00;;;;;7.74;74.86;100294.03;5118775;27;45253;-71
2021/12/09 08:30:52;;;;;;;;;5.50;2.00;;;;;7.74;74.45;100277.53;5118230;27;45252;-71
2021/12/09 08:33:23;;;;;;;;;2.25;2.00;;;;;7.75;74.45;100276.69;5118627;27;45423;-71
2021/12/09 08:35:50;;;;;;;;;2.50;1.25;;;;;7.74;74.09;100275.81;5118324;27;45493;-70
2021/12/09 08:38:16;;;;;;;;;0.25;0.25;;;;;7.61;74.61;100263.19;5118686;27;45432;-72
2021/12/09 08:40:43;;;;;;;;;31.00;28.00;;;;;7.71;74.58;100270.50;5117894;27;45977;-71
2021/12/09 08:43:09;;;;;;;;;6.25;4.50;;;;;7.59;74.52;100244.03;5118248;27;45197;-71
2021/12/09 08:45:35;;;;;;;;;16.00;14.00;;;;;7.56;74.44;100249.16;5118311;27;45431;-71
2021/12/09 08:48:01;;;;;;;;;14.00;11.50;;;;;7.67;74.31;100262.53;5118314;27;45424;-71
2021/12/09 08:50:32;;;;;;;;;7.75;7.00;;;;;7.10;74.31;100165.16;5118109;27;45959;-71
2021/12/09 08:53:00;;;;;;;;;7.75;7.25;;;;;7.68;74.50;100251.28;5117889;27;45481;-70
2021/12/09 08:55:26;;;;;;;;;4.50;4.50;;;;;7.69;74.29;100248.75;5119138;27;45250;-71
2021/12/09 08:57:52;;;;;;;;;10.00;8.25;;;;;7.74;73.91;100257.63;5121736;27;45472;-70
2021/12/09 09:00:18;;;;;;;;;9.00;8.00;;;;;7.62;73.87;100236.38;5121858;27;46044;-75
2021/12/09 09:02:45;;;;;;;;;8.75;7.50;;;;;7.73;73.65;100244.56;5121565;27;45478;-72
2021/12/09 09:05:13;;;;;;;;;4.00;4.00;;;;;7.65;73.69;100241.66;5120311;27;45468;-71
2021/12/09 09:07:46;;;;;;;;;8.00;7.50;;;;;7.60;73.60;100229.31;5121531;27;45490;-70
2021/12/09 09:10:16;;;;;;;;;6.00;6.00;;;;;7.74;73.69;100251.53;5120873;27;46301;-72
2021/12/09 09:12:41;;;;;;;;;1.00;1.00;;;;;7.76;73.26;100261.16;5113642;27;45703;-72
2021/12/09 09:15:09;;;;;;;;;2.00;2.00;;;;;7.75;72.74;100256.78;5118953;27;45538;-71
2021/12/09 09:17:36;;;;;;;;;2.50;2.00;;;;;7.72;72.83;100259.28;5120006;27;45385;-68
2021/12/09 09:20:05;;;;;;;;;2.00;2.00;;;;;7.67;72.92;100254.72;5119123;27;46050;-71
2021/12/09 09:22:31;;;;;;;;;2.00;2.00;;;;;7.66;72.37;100260.75;5119814;27;45790;-70
2021/12/09 09:24:56;;;;;;;;;1.00;0.00;;;;;7.64;72.10;100257.19;5120224;27;45542;-70
2021/12/09 09:27:22;;;;;;;;;2.50;2.00;;;;;7.65;71.61;100264.19;5120054;27;45530;-71
2021/12/09 09:29:48;;;;;;;;;2.00;2.00;;;;;7.49;71.63;100226.34;5119769;27;46038;-71
2021/12/09 09:32:13;;;;;;;;;2.75;1.00;;;;;7.66;71.81;100259.06;5119524;27;45424;-69
2021/12/09 09:34:39;;;;;;;;;1.00;1.00;;;;;7.65;71.36;100259.88;5119139;27;45570;-70
2021/12/09 09:37:05;;;;;;;;;1.00;1.00;;;;;7.62;70.96;100251.97;5118244;27;45494;-71
2021/12/09 09:39:33;;;;;;;;;1.00;1.00;;;;;7.62;70.46;100254.56;5118700;27;45443;-71
2021/12/09 09:44:47;;;;;;;;;0.25;0.25;;;;;7.10;69.82;100149.56;5117325;27;45387;-71
2021/12/09 09:47:13;;;;;;;;;0.00;0.00;;;;;7.62;69.52;100248.47;5116798;27;45505;-71
2021/12/09 09:49:39;;;;;;;;;1.00;1.00;;;;;7.63;69.90;100240.72;5119041;27;45467;-72
2021/12/09 09:52:08;;;;;;;;;0.00;0.00;;;;;7.68;69.40;100235.69;5118919;27;45436;-70
2021/12/09 09:54:36;;;;;;;;;1.00;0.00;;;;;7.70;69.43;100229.72;5119853;27;45490;-70
2021/12/09 09:57:02;;;;;;;;;0.00;0.00;;;;;7.23;69.41;100153.50;5114791;27;45533;-71
2021/12/09 09:59:28;;;;;;;;;0.00;0.00;;;;;7.81;69.23;100237.91;5098988;27;45676;-72
2021/12/09 10:01:55;;;;;;;;;0.67;0.67;;;;;7.83;69.25;100233.66;5099350;27;45315;-71
2021/12/09 10:04:44;;;;;;;;;0.00;0.00;;;;;7.83;69.29;100238.84;5109968;27;45565;-71
2021/12/09 10:07:13;;;;;;;;;0.00;0.00;;;;;7.73;69.08;100219.44;5119011;27;45549;-70
2021/12/09 10:09:40;;;;;;;;;1.00;1.00;;;;;7.73;68.77;100216.81;5119541;27;45449;-71
2021/12/09 10:12:06;;;;;;;;;2.00;1.25;;;;;7.72;69.21;100204.66;5119180;27;45493;-69
2021/12/09 10:14:33;;;;;;;;;21.25;19.00;;;;;7.80;69.43;100196.25;5119060;27;45495;-71
2021/12/09 10:17:15;;;;;;;;;14.75;14.00;;;;;7.98;68.94;100189.09;5119611;27;45443;-72
2021/12/09 10:19:46;;;;;;;;;48.00;38.00;;;;;8.14;68.76;100180.09;5130543;27;45482;-71
2021/12/09 10:22:16;;;;;;;;;18.75;14.75;;;;;8.17;68.60;100182.78;5119639;27;45450;-72
2021/12/09 10:24:44;;;;;;;;;4.00;2.67;;;;;8.09;68.66;100184.25;5119694;27;45557;-74
2021/12/09 10:27:22;;;;;;;;;7.00;6.00;;;;;7.99;68.94;100167.44;5118854;27;45398;-73
2021/12/09 10:29:47;;;;;;;;;8.00;6.00;;;;;7.96;69.16;100169.97;5117041;27;45853;-71
2021/12/09 10:32:25;;;;;;;;;13.25;11.25;;;;;7.76;69.14;100133.75;5117383;27;45513;-72
2021/12/09 10:34:51;;;;;;;;;30.00;22.50;;;;;7.78;69.65;100128.59;5118776;27;45414;-72
2021/12/09 10:37:29;;;;;;;;;9.00;8.00;;;;;7.91;69.68;100135.09;5119001;27;45356;-73
2021/12/09 10:40:01;;;;;;;;;7.50;7.00;;;;;7.92;69.74;100139.47;5117117;27;46098;-72
2021/12/09 10:42:43;;;;;;;;;7.50;6.75;;;;;7.95;69.94;100147.38;5115780;27;45438;-71
2021/12/09 10:45:17;;;;;;;;;7.50;6.50;;;;;7.97;69.89;100154.38;5116078;27;45486;-72
2021/12/09 10:48:01;;;;;;;;;5.25;5.25;;;;;7.99;69.84;100156.16;5115696;27;45249;-71
2021/12/09 10:50:37;;;;;;;;;7.75;7.00;;;;;8.01;69.76;100144.97;5115613;27;45608;-71
2021/12/09 10:53:52;;;;;;;;;1.75;1.00;;;;;7.91;69.65;100101.28;5118406;27;45802;-74
2021/12/09 10:56:10;;;;;;;;;2.50;2.00;;;;;7.98;69.10;100090.25;5108269;27;45525;-76
2021/12/09 10:58:37;;;;;;;;;3.25;2.75;;;;;8.11;69.12;100091.53;5117503;27;45455;-70
2021/12/09 11:01:10;;;;;;;;;3.25;2.50;;;;;8.16;68.89;100082.19;5116707;27;46443;-71
2021/12/09 11:03:43;;;;;;;;;0.00;0.00;;;;;8.26;68.84;100084.22;5116874;27;45382;-70
2021/12/09 11:06:12;;;;;;;;;0.00;0.00;;;;;8.29;68.26;100080.84;5116950;27;45370;-70
2021/12/09 11:08:46;;;;;;;;;0.00;0.00;;;;;8.22;68.23;100068.47;5118967;27;45490;-72
2021/12/09 11:11:15;;;;;;;;;1.67;1.00;;;;;8.23;68.85;100062.44;5118705;27;45455;-71
2021/12/09 11:13:50;;;;;;;;;0.00;0.00;;;;;8.23;68.49;100047.69;5122735;27;45461;-72
2021/12/09 11:16:24;;;;;;;;;1.00;1.00;;;;;8.18;68.67;100059.69;5126598;27;45559;-72
2021/12/09 11:18:52;;;;;;;;;0.67;0.67;;;;;7.95;69.02;100022.53;5120057;27;45463;-72
2021/12/09 11:21:32;;;;;;;;;2.33;2.33;;;;;8.05;69.43;100039.31;5119232;27;45329;-73
2021/12/09 11:24:16;;;;;;;;;2.00;2.00;;;;;7.97;69.80;100011.31;5119276;27;45466;-71
2021/12/09 11:26:56;;;;;;;;;0.67;0.67;;;;;8.10;69.20;100029.94;5118561;27;45813;-72
2021/12/09 11:29:35;;;;;;;;;0.00;0.00;;;;;8.10;69.17;100025.63;5119212;27;45237;-72
2021/12/09 11:32:37;;;;;;;;;1.00;1.00;;;;;8.15;69.28;100017.94;5118315;27;45434;-72
2021/12/09 11:35:10;;;;;;;;;0.67;0.67;;;;;8.17;68.91;99998.06;5115610;27;45280;-72
2021/12/09 11:37:44;;;;;;;;;3.75;3.25;;;;;8.14;69.07;99995.38;5116036;27;45505;-72